Time;durP1;ratioP1;P1;durP2;ratioP2;P2;SDS_P1;SDS_P2;PMS_P1;PMS_P2;Temp;Humidity;BMP_temperature;BMP_pressure;BME280_temperature;BME280_humidity;BME280_pressure;Samples;Min_cycle;Max_cycle;Signal;HPM_P1;HPM_P2
2021/09/07 00:00:45;;;;;;;11.05;7.00;;;;;;;12.97;71.52;100459.47;5116195;28;20043;-50
2021/09/07 00:03:11;;;;;;;11.27;6.88;;;;;;;12.95;71.47;100451.59;5115523;28;20047;-50
2021/09/07 00:05:36;;;;;;;10.98;6.57;;;;;;;12.92;71.86;100454.28;5116149;28;20461;-50
2021/09/07 00:08:02;;;;;;;10.10;6.55;;;;;;;12.93;71.80;100448.13;5116421;28;20048;-50
2021/09/07 00:10:29;;;;;;;12.63;6.22;;;;;;;12.93;71.50;100442.88;5116110;28;20073;-49
2021/09/07 00:12:55;;;;;;;13.13;6.60;;;;;;;12.91;71.67;100446.47;5116364;28;20426;-50
2021/09/07 00:15:21;;;;;;;13.93;7.28;;;;;;;12.88;71.81;100431.63;5116119;28;20088;-50
2021/09/07 00:17:51;;;;;;;14.73;7.22;;;;;;;12.88;71.74;100436.03;5116439;28;20036;-49
2021/09/07 00:20:17;;;;;;;12.07;6.07;;;;;;;12.90;71.40;100429.78;5115216;28;20462;-50
2021/09/07 00:22:43;;;;;;;9.85;5.50;;;;;;;12.90;71.18;100429.78;5115977;28;20040;-50
2021/09/07 00:25:09;;;;;;;11.50;6.03;;;;;;;12.93;71.04;100429.72;5115975;28;20048;-50
2021/09/07 00:27:35;;;;;;;10.30;6.03;;;;;;;12.93;71.09;100431.50;5116259;28;20393;-49
2021/09/07 00:30:02;;;;;;;10.20;5.93;;;;;;;12.93;71.20;100423.59;5115370;28;20066;-50
2021/09/07 00:32:27;;;;;;;11.00;6.13;;;;;;;12.91;71.29;100428.91;5116115;28;20134;-50
2021/09/07 00:34:53;;;;;;;8.90;5.35;;;;;;;12.95;70.94;100434.97;5116238;28;20055;-50
2021/09/07 00:37:19;;;;;;;12.95;7.05;;;;;;;12.94;70.94;100428.84;5115022;28;20364;-50
2021/09/07 00:39:45;;;;;;;13.25;6.50;;;;;;;12.90;70.84;100424.53;5119429;28;20052;-50
2021/09/07 00:42:11;;;;;;;10.10;6.35;;;;;;;12.98;70.71;100433.13;5118615;28;20070;-50
2021/09/07 00:44:37;;;;;;;10.50;5.60;;;;;;;12.99;70.85;100434.84;5119473;28;20436;-50
2021/09/07 00:47:04;;;;;;;10.15;6.38;;;;;;;12.99;70.65;100432.22;5119564;28;20040;-50
2021/09/07 00:49:30;;;;;;;13.25;6.07;;;;;;;12.99;70.61;100436.59;5119462;28;20040;-50
2021/09/07 00:51:56;;;;;;;11.07;6.10;;;;;;;12.99;70.99;100433.97;5119305;28;20398;-50
2021/09/07 00:54:26;;;;;;;11.82;6.45;;;;;;;13.01;70.57;100438.31;5119989;28;20051;-50
2021/09/07 00:56:53;;;;;;;11.30;5.97;;;;;;;13.00;70.92;100428.69;5119720;28;20051;-50
2021/09/07 00:59:19;;;;;;;12.25;6.82;;;;;;;12.99;70.87;100423.47;5119518;28;20126;-49
2021/09/07 01:01:44;;;;;;;11.15;6.75;;;;;;;13.00;71.06;100419.91;5118306;28;20121;-50
2021/09/07 01:04:10;;;;;;;9.68;5.85;;;;;;;12.99;70.97;100413.81;5119425;28;20048;-50
2021/09/07 01:06:36;;;;;;;14.65;7.15;;;;;;;13.00;71.45;100415.53;5118286;28;20399;-49
2021/09/07 01:09:02;;;;;;;13.57;6.30;;;;;;;13.00;71.34;100410.28;5119371;28;20109;-50
2021/09/07 01:11:29;;;;;;;10.38;5.90;;;;;;;13.02;71.43;100410.22;5118944;28;20039;-50
2021/09/07 01:13:54;;;;;;;10.23;6.38;;;;;;;12.99;71.33;100398.03;5119234;28;20066;-50
2021/09/07 01:16:22;;;;;;;10.65;6.85;;;;;;;13.05;71.30;100407.53;5118085;28;20138;-49
2021/09/07 01:18:50;;;;;;;13.35;6.90;;;;;;;13.06;70.94;100404.88;5118283;28;20058;-50
2021/09/07 01:21:16;;;;;;;9.40;6.25;;;;;;;13.06;71.29;100396.09;5119074;28;20139;-49
2021/09/07 01:23:44;;;;;;;13.40;6.50;;;;;;;13.04;71.10;100392.66;5119040;27;20123;-49
2021/09/07 01:26:10;;;;;;;11.15;6.68;;;;;;;13.02;70.93;100387.44;5119006;28;20070;-49
2021/09/07 01:28:36;;;;;;;10.65;6.13;;;;;;;13.03;71.09;100394.44;5118661;28;20058;-49
2021/09/07 01:31:02;;;;;;;10.93;6.97;;;;;;;13.07;70.76;100398.69;5117661;28;20059;-50
2021/09/07 01:33:30;;;;;;;11.40;6.13;;;;;;;13.05;70.78;100399.63;5119462;28;20062;-50
2021/09/07 01:35:56;;;;;;;12.13;6.60;;;;;;;13.10;70.95;100400.41;5101024;28;20504;-50
2021/09/07 01:38:23;;;;;;;10.73;6.10;;;;;;;13.10;71.01;100406.50;5118760;28;20051;-49
2021/09/07 01:40:48;;;;;;;10.07;6.15;;;;;;;13.10;70.83;100400.41;5118326;28;20059;-50
2021/09/07 01:43:15;;;;;;;9.70;5.80;;;;;;;13.08;70.62;100403.06;5118397;28;20357;-50
2021/09/07 01:45:40;;;;;;;9.98;5.88;;;;;;;13.05;70.88;100394.38;5118352;28;20044;-49
2021/09/07 01:48:06;;;;;;;11.77;6.32;;;;;;;13.08;70.84;100402.19;5083748;28;20473;-50
2021/09/07 01:50:32;;;;;;;12.52;5.78;;;;;;;13.10;70.67;100389.88;5118121;28;20048;-50
2021/09/07 01:52:58;;;;;;;11.48;6.63;;;;;;;13.10;70.59;100384.63;5117591;28;20066;-50
2021/09/07 01:55:24;;;;;;;11.43;5.72;;;;;;;13.10;70.38;100388.09;5118133;28;20077;-50
2021/09/07 01:57:51;;;;;;;11.20;6.47;;;;;;;13.09;70.50;100391.63;5118366;28;20047;-50
2021/09/07 02:00:17;;;;;;;14.25;5.80;;;;;;;13.12;70.39;100388.06;5118300;28;20047;-50
2021/09/07 02:02:44;;;;;;;12.50;6.20;;;;;;;13.15;70.44;100393.22;5118283;28;20040;-50
2021/09/07 02:05:09;;;;;;;11.43;6.40;;;;;;;13.15;70.36;100387.97;5117161;28;20447;-50
2021/09/07 02:07:35;;;;;;;10.68;5.70;;;;;;;13.13;70.45;100381.03;5118194;28;20047;-50
2021/09/07 02:10:01;;;;;;;10.85;6.53;;;;;;;13.14;69.93;100382.78;5116955;28;20104;-50
2021/09/07 02:12:27;;;;;;;12.55;5.70;;;;;;;13.16;69.79;100386.19;5117741;28;20044;-50
2021/09/07 02:14:53;;;;;;;11.30;5.68;;;;;;;13.15;69.95;100377.44;5118017;28;20047;-50
2021/09/07 02:17:24;;;;;;;11.15;6.05;;;;;;;13.16;69.78;100370.41;5117964;28;20058;-50
2021/09/07 02:19:53;;;;;;;11.13;5.88;;;;;;;13.18;69.75;100372.09;5117939;27;20043;-50
2021/09/07 02:22:21;;;;;;;10.07;6.45;;;;;;;13.16;70.07;100367.78;5117650;28;20114;-50
2021/09/07 02:24:48;;;;;;;10.02;5.38;;;;;;;13.17;70.58;100374.81;5117582;28;20421;-50
2021/09/07 02:27:15;;;;;;;10.05;5.95;;;;;;;13.19;70.36;100370.34;5117563;28;20044;-50
2021/09/07 02:29:40;;;;;;;11.63;6.03;;;;;;;13.20;70.41;100366.81;5117768;28;20047;-50
2021/09/07 02:32:07;;;;;;;11.13;6.10;;;;;;;13.16;70.68;100362.53;5117370;28;20039;-50
2021/09/07 02:34:33;;;;;;;10.77;6.35;;;;;;;13.15;70.59;100363.44;5117424;28;20444;-50
2021/09/07 02:37:00;;;;;;;10.35;5.90;;;;;;;13.15;70.89;100366.94;5099811;28;20036;-50
2021/09/07 02:39:27;;;;;;;9.52;5.78;;;;;;;13.18;70.51;100360.72;5117329;28;20039;-50
2021/09/07 02:41:53;;;;;;;13.80;6.03;;;;;;;13.20;70.80;100353.69;5117129;28;20120;-50
2021/09/07 02:44:20;;;;;;;11.93;5.80;;;;;;;13.21;70.76;100352.75;5117198;28;20501;-50
2021/09/07 02:46:46;;;;;;;11.70;5.95;;;;;;;13.20;70.95;100344.00;5117472;28;20048;-50
2021/09/07 02:49:13;;;;;;;11.38;6.20;;;;;;;13.16;71.04;100347.63;5117157;28;20051;-49
2021/09/07 02:51:43;;;;;;;12.57;7.13;;;;;;;13.20;70.85;100353.69;5118079;28;20040;-50
2021/09/07 02:54:10;;;;;;;10.75;6.43;;;;;;;13.21;71.09;100345.72;5116988;28;20058;-50
2021/09/07 02:56:37;;;;;;;8.88;5.53;;;;;;;13.24;71.09;100343.03;5117264;28;20047;-50
2021/09/07 02:59:04;;;;;;;10.07;6.47;;;;;;;13.25;70.98;100351.81;5116999;28;20040;-50
2021/09/07 03:01:31;;;;;;;11.98;6.22;;;;;;;13.27;71.08;100352.63;5116469;28;20459;-50
2021/09/07 03:03:57;;;;;;;10.30;6.28;;;;;;;13.20;71.45;100340.53;5117120;28;20048;-50
2021/09/07 03:06:23;;;;;;;10.90;6.07;;;;;;;13.24;71.10;100355.31;5116846;28;20384;-49
2021/09/07 03:08:48;;;;;;;8.60;6.25;;;;;;;13.24;71.56;100353.56;5117081;28;20127;-50
2021/09/07 03:11:14;;;;;;;12.43;6.40;;;;;;;13.22;71.62;100352.69;5117003;28;20360;-50
2021/09/07 03:13:40;;;;;;;13.20;5.57;;;;;;;13.18;71.70;100352.84;5116690;28;20361;-50
2021/09/07 03:16:07;;;;;;;11.02;6.38;;;;;;;13.17;71.71;100344.09;5116716;28;20433;-50
2021/09/07 03:18:33;;;;;;;12.60;6.25;;;;;;;13.15;71.77;100342.41;5116950;28;20124;-50
2021/09/07 03:20:59;;;;;;;13.10;6.50;;;;;;;13.12;72.09;100340.72;5116713;28;20360;-50
2021/09/07 03:23:26;;;;;;;10.00;6.00;;;;;;;13.10;72.03;100342.53;5116846;28;20062;-50
2021/09/07 03:25:52;;;;;;;10.55;6.28;;;;;;;13.08;72.16;100333.81;5116853;28;20044;-50
2021/09/07 03:28:18;;;;;;;11.85;6.70;;;;;;;13.08;72.00;100337.31;5116798;28;20044;-50
2021/09/07 03:30:45;;;;;;;12.90;6.65;;;;;;;13.04;72.60;100334.81;5116439;28;20063;-50
2021/09/07 03:33:10;;;;;;;11.88;5.85;;;;;;;13.01;72.86;100337.53;5116740;28;20051;-50
2021/09/07 03:35:37;;;;;;;17.13;6.70;;;;;;;12.95;72.89;100335.06;5116491;28;20040;-50
2021/09/07 03:38:04;;;;;;;11.70;6.30;;;;;;;12.91;73.10;100343.94;5116723;28;20043;-50
2021/09/07 03:40:30;;;;;;;12.95;6.00;;;;;;;12.92;72.88;100343.88;5116222;28;20430;-50
2021/09/07 03:42:56;;;;;;;11.90;6.63;;;;;;;12.95;72.94;100356.09;5116733;28;20104;-50
2021/09/07 03:45:22;;;;;;;10.70;5.80;;;;;;;12.94;72.93;100352.59;5116644;28;20116;-49
2021/09/07 03:47:49;;;;;;;9.13;5.75;;;;;;;12.89;72.86;100335.22;5116639;28;20115;-49
2021/09/07 03:50:16;;;;;;;12.45;7.53;;;;;;;12.95;72.88;100348.19;5115809;28;20132;-50
2021/09/07 03:52:43;;;;;;;13.93;7.15;;;;;;;12.92;73.41;100349.13;5116184;28;20456;-50
2021/09/07 03:55:11;;;;;;;12.57;6.88;;;;;;;12.93;73.76;100342.97;5116591;28;20048;-50
2021/09/07 03:57:37;;;;;;;11.10;6.13;;;;;;;12.91;73.61;100336.91;5116221;28;20543;-50
2021/09/07 04:00:04;;;;;;;9.98;6.32;;;;;;;12.92;73.47;100341.25;5116538;28;20051;-50
2021/09/07 04:02:39;;;;;;;10.57;6.70;;;;;;;12.93;73.38;100342.97;5116507;28;20044;-50
2021/09/07 04:05:06;;;;;;;14.45;7.47;;;;;;;12.91;73.97;100343.94;5116472;28;20051;-50
2021/09/07 04:07:32;;;;;;;10.80;6.72;;;;;;;12.95;73.44;100345.56;5116432;28;20059;-50
2021/09/07 04:09:59;;;;;;;10.25;6.40;;;;;;;12.96;73.30;100345.50;5116460;28;20366;-50
2021/09/07 04:12:25;;;;;;;11.15;6.28;;;;;;;12.98;73.48;100337.59;5116128;28;20039;-50
2021/09/07 04:14:51;;;;;;;10.68;6.97;;;;;;;12.99;73.54;100340.19;5119723;28;20055;-50
2021/09/07 04:17:17;;;;;;;9.60;6.47;;;;;;;13.00;73.50;100339.28;5119396;28;20044;-50
2021/09/07 04:19:44;;;;;;;10.65;6.55;;;;;;;13.01;73.30;100333.13;5120316;28;20116;-50
2021/09/07 04:22:11;;;;;;;12.00;6.70;;;;;;;12.99;73.38;100332.28;5120049;28;20479;-50
2021/09/07 04:24:37;;;;;;;12.00;6.75;;;;;;;12.99;73.42;100342.81;5119962;27;20039;-50
2021/09/07 04:27:03;;;;;;;13.55;6.18;;;;;;;13.00;73.29;100348.91;5119000;28;20453;-50
2021/09/07 04:29:29;;;;;;;12.00;6.03;;;;;;;13.00;73.62;100346.28;5120153;28;20062;-50
2021/09/07 04:31:54;;;;;;;14.35;6.70;;;;;;;12.97;73.54;100335.88;5120025;28;20047;-50
2021/09/07 04:34:21;;;;;;;15.25;6.13;;;;;;;13.01;73.52;100351.53;5102358;28;20168;-50
2021/09/07 04:36:46;;;;;;;11.55;6.65;;;;;;;13.02;73.85;100344.50;5119728;28;20441;-49
2021/09/07 04:39:12;;;;;;;11.63;7.20;;;;;;;12.98;74.16;100356.88;5120084;28;20040;-50
2021/09/07 04:41:38;;;;;;;10.27;6.75;;;;;;;13.00;73.99;100360.34;5119413;28;20449;-50
2021/09/07 04:44:04;;;;;;;11.85;6.25;;;;;;;13.03;74.11;100357.63;5119807;28;20054;-50
2021/09/07 04:46:30;;;;;;;12.38;6.65;;;;;;;13.04;73.96;100353.22;5102064;28;20126;-50
2021/09/07 04:48:56;;;;;;;15.23;6.78;;;;;;;13.06;74.05;100351.41;5120292;28;20336;-50
2021/09/07 04:51:23;;;;;;;13.75;7.32;;;;;;;13.09;73.97;100353.94;5101672;28;20096;-50
2021/09/07 04:53:49;;;;;;;9.18;5.68;;;;;;;13.13;74.04;100363.50;5119645;28;20051;-50
2021/09/07 04:56:15;;;;;;;11.23;7.35;;;;;;;13.17;74.26;100369.53;5119359;28;20042;-50
2021/09/07 04:58:40;;;;;;;11.43;6.57;;;;;;;13.22;74.13;100359.75;5119552;28;20431;-50
2021/09/07 05:01:06;;;;;;;14.05;6.22;;;;;;;13.27;74.22;100371.03;5119193;28;20066;-50
2021/09/07 05:03:32;;;;;;;13.65;7.20;;;;;;;13.33;74.24;100368.25;5119134;28;20079;-50
2021/09/07 05:05:58;;;;;;;9.85;5.93;;;;;;;13.39;74.05;100369.81;5119423;28;20047;-49
2021/09/07 05:08:24;;;;;;;11.95;6.47;;;;;;;13.44;73.98;100360.06;5118969;27;20058;-50
2021/09/07 05:10:50;;;;;;;11.68;6.93;;;;;;;13.50;73.78;100362.50;5117686;28;20062;-50
2021/09/07 05:13:15;;;;;;;13.32;6.65;;;;;;;13.54;73.54;100369.41;5116195;28;20130;-50
2021/09/07 05:15:41;;;;;;;11.13;6.50;;;;;;;13.59;73.75;100369.28;5117474;28;20079;-50
2021/09/07 05:18:07;;;;;;;11.30;5.97;;;;;;;13.65;73.39;100369.97;5118667;28;20044;-50
2021/09/07 05:20:32;;;;;;;11.85;6.65;;;;;;;13.68;73.30;100372.53;5117863;28;20429;-50
2021/09/07 05:22:58;;;;;;;13.43;7.95;;;;;;;13.73;73.45;100367.13;5119075;28;20048;-50
2021/09/07 05:25:26;;;;;;;12.45;7.55;;;;;;;13.79;74.04;100369.56;5118746;28;20438;-50
2021/09/07 05:27:52;;;;;;;10.65;6.70;;;;;;;13.87;73.74;100366.69;5118997;28;20052;-50
2021/09/07 05:30:18;;;;;;;16.00;7.80;;;;;;;13.97;73.58;100379.56;5117780;28;20073;-50
2021/09/07 05:32:44;;;;;;;15.50;7.95;;;;;;;14.10;72.94;100380.03;5083984;28;20444;-49
2021/09/07 05:35:10;;;;;;;14.50;7.95;;;;;;;14.21;72.86;100377.94;5118632;28;20039;-50
2021/09/07 05:37:39;;;;;;;17.70;10.82;;;;;;;14.33;72.40;100367.91;5118564;28;20040;-50
2021/09/07 05:40:07;;;;;;;22.52;13.10;;;;;;;14.42;72.55;100372.91;5118474;28;20047;-50
2021/09/07 05:42:33;;;;;;;15.45;9.13;;;;;;;14.45;71.88;100372.81;5118258;28;20051;-50
2021/09/07 05:44:58;;;;;;;13.98;8.52;;;;;;;14.53;72.11;100362.03;5118527;28;20104;-50
2021/09/07 05:47:25;;;;;;;16.00;8.27;;;;;;;14.63;72.04;100360.84;5118304;28;20051;-50
2021/09/07 05:49:50;;;;;;;14.95;8.23;;;;;;;14.72;71.70;100361.41;5117917;28;20054;-50
2021/09/07 05:52:16;;;;;;;15.50;7.53;;;;;;;14.79;71.47;100363.84;5116400;28;20048;-50
2021/09/07 05:54:42;;;;;;;19.67;8.77;;;;;;;14.87;71.31;100364.44;5116669;28;20047;-50
2021/09/07 05:57:07;;;;;;;13.93;8.77;;;;;;;14.89;71.00;100366.13;5117156;28;20055;-50
2021/09/07 05:59:33;;;;;;;20.08;11.38;;;;;;;15.08;71.27;100366.34;5117591;28;20354;-50
2021/09/07 06:01:59;;;;;;;18.27;9.38;;;;;;;15.22;70.01;100372.91;5117485;28;20116;-50
2021/09/07 06:04:25;;;;;;;18.52;8.80;;;;;;;15.31;70.14;100376.09;5117453;28;20435;-50
2021/09/07 06:06:51;;;;;;;21.27;8.50;;;;;;;15.48;68.80;100375.47;5117563;28;20051;-50
2021/09/07 06:09:17;;;;;;;15.55;8.70;;;;;;;15.70;68.19;100380.00;5117872;28;20440;-50
2021/09/07 06:11:43;;;;;;;19.52;8.80;;;;;;;15.81;68.39;100362.84;5118092;28;20050;-50
2021/09/07 06:14:09;;;;;;;19.35;8.60;;;;;;;16.03;68.12;100375.22;5117827;28;20039;-50
2021/09/07 06:16:35;;;;;;;16.55;9.68;;;;;;;16.16;67.51;100370.34;5116905;28;20510;-50
2021/09/07 06:19:01;;;;;;;16.67;9.55;;;;;;;16.20;67.09;100372.78;5118008;28;20051;-50
2021/09/07 06:21:27;;;;;;;19.77;10.18;;;;;;;16.25;67.10;100384.03;5117920;28;20051;-50
2021/09/07 06:23:52;;;;;;;16.02;9.05;;;;;;;16.27;66.07;100386.63;5117925;28;20111;-50
2021/09/07 06:26:18;;;;;;;22.15;9.85;;;;;;;16.31;66.10;100380.28;5117533;28;20051;-50
2021/09/07 06:28:45;;;;;;;22.42;9.75;;;;;;;16.33;65.98;100379.31;5117806;28;20048;-50
2021/09/07 06:31:11;;;;;;;16.80;9.07;;;;;;;16.44;66.28;100380.66;5117362;28;20433;-50
2021/09/07 06:33:37;;;;;;;16.30;8.40;;;;;;;16.52;66.08;100387.38;5117690;28;20047;-50
2021/09/07 06:36:03;;;;;;;17.40;7.63;;;;;;;16.61;65.75;100386.13;5116810;28;20444;-50
2021/09/07 06:38:29;;;;;;;10.55;7.18;;;;;;;16.72;65.80;100385.69;5117384;28;20338;-50
2021/09/07 06:40:54;;;;;;;11.00;7.10;;;;;;;16.86;66.12;100383.34;5117303;28;20055;-50
2021/09/07 06:43:21;;;;;;;12.98;7.25;;;;;;;17.06;65.18;100398.38;5117552;28;20437;-50
2021/09/07 06:45:47;;;;;;;13.52;7.82;;;;;;;17.27;64.48;100396.63;5116314;28;20051;-50
2021/09/07 06:48:13;;;;;;;10.65;6.68;;;;;;;17.56;64.43;100384.75;5117201;28;20039;-50
2021/09/07 06:50:39;;;;;;;28.23;14.85;;;;;;;17.97;64.14;100388.19;5117063;28;20054;-50
2021/09/07 06:53:05;;;;;;;16.20;9.18;;;;;;;18.05;63.21;100355.16;5117268;28;20047;-50
2021/09/07 06:55:31;;;;;;;12.90;8.07;;;;;;;18.29;62.69;100383.13;5117295;28;20456;-50
2021/09/07 06:57:57;;;;;;;14.73;7.57;;;;;;;18.40;62.01;100380.00;5099243;28;20047;-50
2021/09/07 07:00:23;;;;;;;12.85;8.13;;;;;;;18.44;61.62;100385.06;5116970;28;20410;-50
2021/09/07 07:02:49;;;;;;;16.25;8.20;;;;;;;18.52;61.37;100383.81;5117183;28;20047;-50
2021/09/07 07:05:15;;;;;;;14.05;7.82;;;;;;;18.61;61.38;100384.22;5099213;28;20370;-50
2021/09/07 07:07:41;;;;;;;15.35;7.25;;;;;;;18.64;61.01;100384.09;5116256;28;20050;-50
2021/09/07 07:10:07;;;;;;;13.10;6.68;;;;;;;18.50;60.42;100365.34;5117079;28;20126;-50
2021/09/07 07:12:33;;;;;;;15.00;8.32;;;;;;;18.71;60.16;100387.28;5116945;28;20058;-50
2021/09/07 07:14:59;;;;;;;15.70;8.43;;;;;;;18.85;61.24;100394.63;5116753;27;20118;-50
2021/09/07 07:17:25;;;;;;;16.75;8.63;;;;;;;18.95;61.30;100398.53;5115843;28;20039;-50
2021/09/07 07:19:51;;;;;;;12.68;8.40;;;;;;;19.03;60.99;100400.78;5116634;28;20133;-50
2021/09/07 07:22:18;;;;;;;12.75;7.82;;;;;;;19.07;60.87;100395.22;5115788;28;20047;-50
2021/09/07 07:24:44;;;;;;;14.07;7.55;;;;;;;19.24;61.30;100401.47;5115755;28;20044;-50
2021/09/07 07:27:09;;;;;;;16.92;8.00;;;;;;;19.34;60.47;100403.59;5115738;28;20441;-50
2021/09/07 07:29:35;;;;;;;13.75;8.65;;;;;;;19.45;60.68;100407.47;5117049;28;20074;-50
2021/09/07 07:32:01;;;;;;;16.02;8.18;;;;;;;19.60;60.62;100404.88;5117023;28;20405;-50
2021/09/07 07:34:27;;;;;;;15.85;8.45;;;;;;;19.77;59.95;100404.00;5117276;28;20062;-50
2021/09/07 07:36:57;;;;;;;14.68;7.72;;;;;;;19.92;59.64;100407.66;5117246;28;20071;-50
2021/09/07 07:39:23;;;;;;;12.73;8.73;;;;;;;19.94;59.53;100408.41;5116495;28;20043;-50
2021/09/07 07:41:49;;;;;;;18.20;8.13;;;;;;;20.23;60.00;100416.59;5098504;28;20052;-50
2021/09/07 07:44:15;;;;;;;13.98;8.68;;;;;;;20.39;59.06;100411.28;5116424;28;20043;-50
2021/09/07 07:46:41;;;;;;;14.18;8.48;;;;;;;20.55;59.15;100412.16;5116718;28;20054;-50
2021/09/07 07:49:07;;;;;;;11.75;7.65;;;;;;;20.76;58.92;100416.22;5120934;28;20047;-50
2021/09/07 07:51:33;;;;;;;14.68;8.10;;;;;;;20.89;57.55;100416.38;5120480;27;20470;-50
2021/09/07 07:53:58;;;;;;;16.98;7.80;;;;;;;21.10;57.70;100408.94;5120608;28;20036;-50
2021/09/07 07:56:24;;;;;;;14.15;8.75;;;;;;;21.39;57.62;100414.38;5120506;28;20093;-50
2021/09/07 07:58:50;;;;;;;10.13;7.05;;;;;;;21.72;57.09;100419.44;5120756;28;20048;-50
2021/09/07 08:01:16;;;;;;;13.32;7.38;;;;;;;22.11;56.92;100420.56;5119828;28;20452;-50
2021/09/07 08:03:46;;;;;;;9.95;7.10;;;;;;;22.33;55.92;100414.75;5121193;28;20425;-50
2021/09/07 08:06:15;;;;;;;11.35;7.68;;;;;;;22.59;55.10;100421.09;5120717;28;20318;-50
2021/09/07 08:08:41;;;;;;;12.65;7.47;;;;;;;22.75;54.48;100410.22;5120276;28;20044;-50
2021/09/07 08:11:07;;;;;;;9.30;6.53;;;;;;;22.96;55.21;100413.31;5120415;28;20109;-50
2021/09/07 08:13:33;;;;;;;13.13;7.45;;;;;;;23.15;53.62;100411.13;5120452;28;20047;-50
2021/09/07 08:15:58;;;;;;;12.05;7.10;;;;;;;23.36;53.34;100419.47;5119298;28;20457;-51
2021/09/07 08:18:24;;;;;;;14.25;7.47;;;;;;;23.52;52.75;100414.78;5120432;28;20050;-50
2021/09/07 08:20:50;;;;;;;9.50;6.53;;;;;;;23.53;51.76;100421.84;5120014;28;20047;-50
2021/09/07 08:23:16;;;;;;;12.23;7.78;;;;;;;23.68;49.48;100414.59;5120000;28;20111;-50
2021/09/07 08:25:42;;;;;;;9.95;6.80;;;;;;;23.72;49.57;100424.16;5120013;28;20039;-51
2021/09/07 08:28:08;;;;;;;9.80;6.63;;;;;;;23.97;51.66;100431.25;5119008;28;20051;-51
2021/09/07 08:30:33;;;;;;;14.32;7.55;;;;;;;24.13;50.31;100439.06;5118982;28;20071;-50
2021/09/07 08:32:59;;;;;;;11.15;6.85;;;;;;;24.06;49.63;100429.75;5119989;28;20055;-50
2021/09/07 08:35:25;;;;;;;11.13;7.03;;;;;;;24.03;48.92;100424.63;5120048;28;20380;-50
2021/09/07 08:37:51;;;;;;;11.45;7.38;;;;;;;24.16;48.92;100436.16;5085322;28;20054;-50
2021/09/07 08:40:17;;;;;;;8.63;6.10;;;;;;;24.31;49.72;100436.91;5119539;28;20039;-51
2021/09/07 08:42:43;;;;;;;13.20;7.90;;;;;;;24.50;47.93;100433.75;5119562;28;20047;-50
2021/09/07 08:45:11;;;;;;;13.45;8.05;;;;;;;24.50;46.44;100436.41;5119610;28;20035;-50
2021/09/07 08:47:37;;;;;;;10.27;6.72;;;;;;;24.39;48.34;100425.63;5118611;28;20134;-50
2021/09/07 08:50:03;;;;;;;9.10;6.85;;;;;;;24.31;48.14;100441.38;5118859;28;20055;-50
2021/09/07 08:52:29;;;;;;;9.60;6.00;;;;;;;24.31;48.50;100425.31;5120162;28;20441;-50
2021/09/07 08:54:55;;;;;;;10.68;6.45;;;;;;;24.41;48.67;100442.47;5084718;28;20100;-50
2021/09/07 08:57:21;;;;;;;9.07;6.63;;;;;;;24.35;48.31;100434.84;5118475;28;20127;-50
2021/09/07 09:00:00;;;;;;;10.38;7.05;;;;;;;24.29;46.69;100446.84;5118782;28;20050;-50
2021/09/07 09:02:27;;;;;;;10.10;6.00;;;;;;;24.41;48.55;100440.63;5102185;28;20424;-50
2021/09/07 09:04:54;;;;;;;11.05;7.13;;;;;;;24.67;48.46;100443.22;5119776;28;20050;-50
2021/09/07 09:07:29;;;;;;;11.07;7.82;;;;;;;24.87;45.39;100436.38;5119173;28;20035;-50
2021/09/07 09:09:56;;;;;;;8.82;6.45;;;;;;;25.03;48.07;100444.97;5119427;28;20058;-50
2021/09/07 09:12:35;;;;;;;8.88;5.95;;;;;;;25.10;46.55;100443.53;5118716;28;20035;-50
2021/09/07 09:15:08;;;;;;;13.50;6.40;;;;;;;25.01;47.56;100433.50;5101635;28;20044;-50
2021/09/07 09:17:34;;;;;;;9.13;6.40;;;;;;;25.14;48.30;100437.00;5119271;28;20051;-50
2021/09/07 09:20:05;;;;;;;13.77;6.88;;;;;;;25.30;48.41;100447.41;5119166;28;20054;-50
2021/09/07 09:22:41;;;;;;;10.38;6.35;;;;;;;25.25;46.63;100443.38;5101055;28;20043;-51
2021/09/07 09:25:19;;;;;;;9.15;6.35;;;;;;;25.20;46.97;100445.56;5118775;28;20051;-50
2021/09/07 09:27:49;;;;;;;9.10;5.65;;;;;;;25.34;47.66;100445.34;5119063;27;20071;-50
2021/09/07 09:30:15;;;;;;;10.38;6.35;;;;;;;25.47;47.61;100431.84;5119315;28;20035;-50
2021/09/07 09:32:50;;;;;;;7.63;5.57;;;;;;;25.63;46.29;100440.41;5100725;28;20039;-50
2021/09/07 09:35:16;;;;;;;7.53;5.50;;;;;;;25.77;45.57;100437.53;5117779;28;20040;-50
2021/09/07 09:37:57;;;;;;;7.88;5.93;;;;;;;25.85;45.10;100443.16;5117974;28;20055;-50
2021/09/07 09:40:23;;;;;;;7.53;4.85;;;;;;;25.83;45.56;100441.56;5118586;28;20042;-50
2021/09/07 09:42:49;;;;;;;7.47;5.38;;;;;;;25.89;45.29;100446.44;5117031;28;20067;-50
2021/09/07 09:45:15;;;;;;;10.73;6.15;;;;;;;25.91;45.43;100443.66;5118353;28;20036;-51
2021/09/07 09:47:43;;;;;;;10.32;5.65;;;;;;;25.91;44.44;100433.78;5118547;28;20104;-50
2021/09/07 09:50:13;;;;;;;10.90;6.43;;;;;;;25.87;44.83;100432.31;5117276;28;20122;-50
2021/09/07 09:52:40;;;;;;;11.27;6.50;;;;;;;25.91;45.16;100440.97;5100212;28;20039;-51
2021/09/07 09:55:08;;;;;;;13.07;6.68;;;;;;;25.98;44.71;100429.63;5116863;28;20055;-50
2021/09/07 09:57:34;;;;;;;8.35;5.75;;;;;;;26.05;45.18;100432.66;5117574;28;20051;-50
2021/09/07 10:00:02;;;;;;;10.05;6.78;;;;;;;26.16;45.59;100439.84;5118423;28;20054;-49
2021/09/07 10:02:38;;;;;;;8.82;6.20;;;;;;;26.28;45.28;100433.50;5100402;28;20048;-50
2021/09/07 10:05:04;;;;;;;12.00;6.22;;;;;;;26.47;45.42;100428.34;5116900;27;20433;-50
2021/09/07 10:07:30;;;;;;;9.70;6.53;;;;;;;26.50;45.02;100432.63;5117826;28;20054;-50
2021/09/07 10:09:57;;;;;;;10.35;7.47;;;;;;;26.57;45.73;100421.25;5116568;28;20132;-50
2021/09/07 10:12:45;;;;;;;10.98;5.45;;;;;;;26.73;45.50;100428.06;5099565;28;20123;-50
2021/09/07 10:15:27;;;;;;;8.45;5.88;;;;;;;26.75;44.23;100423.41;5117588;28;20074;-50
2021/09/07 10:24:01;;;;;;;8.05;5.78;;;;;;;27.15;41.67;100418.25;5117666;28;20100;-50
2021/09/07 10:29:11;;;;;;;9.25;5.65;;;;;;;27.45;41.58;100419.31;5118394;28;20048;-51
2021/09/07 10:31:58;;;;;;;7.68;5.60;;;;;;;27.55;42.00;100424.75;5116824;28;20047;-50
2021/09/07 10:34:26;;;;;;;9.23;5.85;;;;;;;27.58;42.18;100414.56;5117118;28;20078;-50
2021/09/07 10:37:07;;;;;;;8.30;5.20;;;;;;;27.50;42.78;100412.53;5116543;28;20373;-50
2021/09/07 10:39:43;;;;;;;6.65;5.30;;;;;;;27.48;41.89;100411.81;5117360;28;20445;-51
2021/09/07 10:42:13;;;;;;;8.43;5.75;;;;;;;27.48;41.91;100422.56;5117136;28;20472;-50
2021/09/07 10:44:42;;;;;;;8.32;6.13;;;;;;;27.19;40.58;100391.97;5117795;28;20142;-50
2021/09/07 10:47:11;;;;;;;11.55;6.07;;;;;;;27.29;40.93;100426.97;5117171;28;20052;-50
2021/09/07 10:49:44;;;;;;;6.43;5.20;;;;;;;27.26;40.88;100422.72;5117484;28;20078;-49
2021/09/07 10:52:21;;;;;;;6.55;5.35;;;;;;;27.19;41.47;100425.06;5116489;28;20035;-50
2021/09/07 10:54:48;;;;;;;5.65;4.93;;;;;;;27.15;41.23;100426.31;5117401;28;20135;-50
2021/09/07 10:57:32;;;;;;;8.65;5.68;;;;;;;27.11;39.83;100424.84;5117038;28;20512;-50
2021/09/07 11:00:02;;;;;;;7.38;5.75;;;;;;;27.17;40.84;100423.50;5116989;28;20509;-51
2021/09/07 11:02:39;;;;;;;9.60;5.85;;;;;;;27.26;40.82;100428.94;5117220;28;20055;-51
2021/09/07 11:05:07;;;;;;;9.82;5.43;;;;;;;27.22;38.29;100410.53;5117220;28;20091;-50
2021/09/07 11:07:40;;;;;;;8.65;5.47;;;;;;;27.36;39.12;100425.47;5116893;28;20040;-51
2021/09/07 11:10:16;;;;;;;9.40;7.43;;;;;;;27.23;37.90;100418.47;5117146;28;20063;-50
2021/09/07 11:12:58;;;;;;;9.45;8.00;;;;;;;27.10;38.59;100427.66;5117038;28;20040;-50
2021/09/07 11:15:42;;;;;;;;;;;;;;;26.71;39.77;100428.16;5117470;28;20058;-49
2021/09/07 11:18:14;;;;;;;8.77;6.20;;;;;;;26.72;40.90;100418.31;5117099;28;20214;-50
2021/09/07 11:20:44;;;;;;;10.88;5.78;;;;;;;26.69;42.27;100424.78;5116992;28;20059;-50
2021/09/07 11:23:14;;;;;;;6.82;5.55;;;;;;;26.67;42.72;100425.88;5116578;28;20044;-50
2021/09/07 11:25:41;;;;;;;10.13;5.25;;;;;;;26.61;42.90;100423.69;5116853;28;20055;-50
2021/09/07 11:28:07;;;;;;;8.98;5.43;;;;;;;26.50;43.64;100424.59;5115764;28;20044;-50